sensor_id;sensor_type;location;lat;lon;timestamp;temperature;humidity
10433;DHT22;5263;48.680;9.004;2022-07-23T00:00:48;22.10;99.90
10433;DHT22;5263;48.680;9.004;2022-07-23T00:03:14;22.20;99.90
10433;DHT22;5263;48.680;9.004;2022-07-23T00:05:40;22.00;99.90
10433;DHT22;5263;48.680;9.004;2022-07-23T00:08:06;22.00;99.90
10433;DHT22;5263;48.680;9.004;2022-07-23T00:10:33;22.00;99.90
10433;DHT22;5263;48.680;9.004;2022-07-23T00:12:59;22.00;99.90
10433;DHT22;5263;48.680;9.004;2022-07-23T00:15:24;21.90;99.90
10433;DHT22;5263;48.680;9.004;2022-07-23T00:17:50;22.00;99.90
10433;DHT22;5263;48.680;9.004;2022-07-23T00:20:16;21.90;99.90
10433;DHT22;5263;48.680;9.004;2022-07-23T00:22:49;21.80;99.90
10433;DHT22;5263;48.680;9.004;2022-07-23T00:25:14;21.60;99.90
10433;DHT22;5263;48.680;9.004;2022-07-23T00:27:40;21.50;99.90
10433;DHT22;5263;48.680;9.004;2022-07-23T00:30:06;21.10;99.90
10433;DHT22;5263;48.680;9.004;2022-07-23T00:32:32;20.60;99.90
10433;DHT22;5263;48.680;9.004;2022-07-23T00:34:58;20.20;99.90
10433;DHT22;5263;48.680;9.004;2022-07-23T00:37:24;20.00;99.90
10433;DHT22;5263;48.680;9.004;2022-07-23T00:39:49;19.80;99.90
10433;DHT22;5263;48.680;9.004;2022-07-23T00:42:15;19.70;99.90
10433;DHT22;5263;48.680;9.004;2022-07-23T00:44:40;19.80;99.90
10433;DHT22;5263;48.680;9.004;2022-07-23T00:47:06;20.00;99.90
10433;DHT22;5263;48.680;9.004;2022-07-23T00:49:32;19.90;99.90
10433;DHT22;5263;48.680;9.004;2022-07-23T00:52:01;19.90;99.90
10433;DHT22;5263;48.680;9.004;2022-07-23T00:54:27;20.00;99.90
10433;DHT22;5263;48.680;9.004;2022-07-23T00:56:53;20.10;99.90
10433;DHT22;5263;48.680;9.004;2022-07-23T00:59:20;20.20;99.90
10433;DHT22;5263;48.680;9.004;2022-07-23T01:01:45;20.40;99.90
10433;DHT22;5263;48.680;9.004;2022-07-23T01:04:14;20.40;99.90
10433;DHT22;5263;48.680;9.004;2022-07-23T01:06:41;20.50;99.90
10433;DHT22;5263;48.680;9.004;2022-07-23T01:09:08;20.50;99.90
10433;DHT22;5263;48.680;9.004;2022-07-23T01:11:35;20.60;99.90
10433;DHT22;5263;48.680;9.004;2022-07-23T01:14:15;20.50;99.90
10433;DHT22;5263;48.680;9.004;2022-07-23T01:16:41;20.40;99.90
10433;DHT22;5263;48.680;9.004;2022-07-23T01:19:08;20.40;99.90
10433;DHT22;5263;48.680;9.004;2022-07-23T01:21:44;20.50;99.90
10433;DHT22;5263;48.680;9.004;2022-07-23T01:24:11;20.50;99.90
10433;DHT22;5263;48.680;9.004;2022-07-23T01:26:37;20.60;99.90
10433;DHT22;5263;48.680;9.004;2022-07-23T01:29:03;20.70;99.90
10433;DHT22;5263;48.680;9.004;2022-07-23T01:31:29;20.60;99.90
10433;DHT22;5263;48.680;9.004;2022-07-23T01:33:55;20.60;99.90
10433;DHT22;5263;48.680;9.004;2022-07-23T01:36:20;20.80;99.90
10433;DHT22;5263;48.680;9.004;2022-07-23T01:38:46;20.90;99.90
10433;DHT22;5263;48.680;9.004;2022-07-23T01:41:12;20.70;99.90
10433;DHT22;5263;48.680;9.004;2022-07-23T01:43:37;20.60;99.90
10433;DHT22;5263;48.680;9.004;2022-07-23T01:46:03;20.30;99.90
10433;DHT22;5263;48.680;9.004;2022-07-23T01:48:29;20.10;99.90
10433;DHT22;5263;48.680;9.004;2022-07-23T01:50:54;19.90;99.90
10433;DHT22;5263;48.680;9.004;2022-07-23T01:53:20;19.80;99.90
10433;DHT22;5263;48.680;9.004;2022-07-23T01:55:45;20.00;99.90
10433;DHT22;5263;48.680;9.004;2022-07-23T01:58:11;19.90;99.90
10433;DHT22;5263;48.680;9.004;2022-07-23T02:00:37;20.00;99.90
10433;DHT22;5263;48.680;9.004;2022-07-23T02:03:02;19.90;99.90
10433;DHT22;5263;48.680;9.004;2022-07-23T02:05:28;19.90;99.90
10433;DHT22;5263;48.680;9.004;2022-07-23T02:07:55;19.80;99.90
10433;DHT22;5263;48.680;9.004;2022-07-23T02:10:21;20.00;99.90
10433;DHT22;5263;48.680;9.004;2022-07-23T02:12:47;20.20;99.90
10433;DHT22;5263;48.680;9.004;2022-07-23T02:15:13;20.20;99.90
10433;DHT22;5263;48.680;9.004;2022-07-23T02:17:39;20.40;99.90
10433;DHT22;5263;48.680;9.004;2022-07-23T02:20:06;20.10;99.90
10433;DHT22;5263;48.680;9.004;2022-07-23T02:22:32;19.80;99.90
10433;DHT22;5263;48.680;9.004;2022-07-23T02:24:58;19.70;99.90
10433;DHT22;5263;48.680;9.004;2022-07-23T02:27:23;19.60;99.90
10433;DHT22;5263;48.680;9.004;2022-07-23T02:29:49;19.60;99.90
10433;DHT22;5263;48.680;9.004;2022-07-23T02:32:15;19.60;99.90
10433;DHT22;5263;48.680;9.004;2022-07-23T02:34:41;19.60;99.90
10433;DHT22;5263;48.680;9.004;2022-07-23T02:37:06;19.60;99.90
10433;DHT22;5263;48.680;9.004;2022-07-23T02:39:34;19.80;99.90
10433;DHT22;5263;48.680;9.004;2022-07-23T02:42:00;19.70;99.90
10433;DHT22;5263;48.680;9.004;2022-07-23T02:44:25;19.90;99.90
10433;DHT22;5263;48.680;9.004;2022-07-23T02:46:51;20.10;99.90
10433;DHT22;5263;48.680;9.004;2022-07-23T02:49:17;20.20;99.90
10433;DHT22;5263;48.680;9.004;2022-07-23T02:51:42;20.30;99.90
10433;DHT22;5263;48.680;9.004;2022-07-23T02:54:08;20.40;99.90
10433;DHT22;5263;48.680;9.004;2022-07-23T02:56:33;20.40;99.90
10433;DHT22;5263;48.680;9.004;2022-07-23T02:58:59;20.30;99.90
10433;DHT22;5263;48.680;9.004;2022-07-23T03:01:25;20.30;99.90
10433;DHT22;5263;48.680;9.004;2022-07-23T03:03:51;20.30;99.90
10433;DHT22;5263;48.680;9.004;2022-07-23T03:06:16;20.30;99.90
10433;DHT22;5263;48.680;9.004;2022-07-23T03:08:43;20.20;99.90
10433;DHT22;5263;48.680;9.004;2022-07-23T03:11:08;20.20;99.90
10433;DHT22;5263;48.680;9.004;2022-07-23T03:13:39;19.90;99.90
10433;DHT22;5263;48.680;9.004;2022-07-23T03:16:06;19.80;99.90
10433;DHT22;5263;48.680;9.004;2022-07-23T03:18:32;19.70;99.90
10433;DHT22;5263;48.680;9.004;2022-07-23T03:20:57;19.70;99.90
10433;DHT22;5263;48.680;9.004;2022-07-23T03:23:23;19.70;99.90
10433;DHT22;5263;48.680;9.004;2022-07-23T03:25:48;19.70;99.90
10433;DHT22;5263;48.680;9.004;2022-07-23T03:28:15;19.70;99.90
10433;DHT22;5263;48.680;9.004;2022-07-23T03:30:44;19.70;99.90
10433;DHT22;5263;48.680;9.004;2022-07-23T03:33:12;19.50;99.90
10433;DHT22;5263;48.680;9.004;2022-07-23T03:35:38;19.40;99.90
10433;DHT22;5263;48.680;9.004;2022-07-23T03:38:04;19.50;99.90
10433;DHT22;5263;48.680;9.004;2022-07-23T03:40:29;19.60;99.90
10433;DHT22;5263;48.680;9.004;2022-07-23T03:42:55;19.70;99.90
10433;DHT22;5263;48.680;9.004;2022-07-23T03:45:20;19.80;99.90
10433;DHT22;5263;48.680;9.004;2022-07-23T03:47:46;19.60;99.90
10433;DHT22;5263;48.680;9.004;2022-07-23T03:50:12;19.40;99.90
10433;DHT22;5263;48.680;9.004;2022-07-23T03:52:37;19.30;99.90
10433;DHT22;5263;48.680;9.004;2022-07-23T03:55:03;19.40;99.90
10433;DHT22;5263;48.680;9.004;2022-07-23T03:57:29;19.30;99.90
10433;DHT22;5263;48.680;9.004;2022-07-23T03:59:55;19.40;99.90
10433;DHT22;5263;48.680;9.004;2022-07-23T04:02:21;19.50;99.90
10433;DHT22;5263;48.680;9.004;2022-07-23T04:04:46;19.50;99.90
10433;DHT22;5263;48.680;9.004;2022-07-23T04:07:12;19.20;99.90
10433;DHT22;5263;48.680;9.004;2022-07-23T04:09:38;19.20;99.90
10433;DHT22;5263;48.680;9.004;2022-07-23T04:12:06;19.30;99.90
10433;DHT22;5263;48.680;9.004;2022-07-23T04:14:32;19.40;99.90
10433;DHT22;5263;48.680;9.004;2022-07-23T04:16:58;19.60;99.90
10433;DHT22;5263;48.680;9.004;2022-07-23T04:19:24;19.50;99.90
10433;DHT22;5263;48.680;9.004;2022-07-23T04:21:50;19.60;99.90
10433;DHT22;5263;48.680;9.004;2022-07-23T04:24:16;19.60;99.90
10433;DHT22;5263;48.680;9.004;2022-07-23T04:26:41;19.60;99.90
10433;DHT22;5263;48.680;9.004;2022-07-23T04:29:07;19.60;99.90
10433;DHT22;5263;48.680;9.004;2022-07-23T04:31:32;19.70;99.90
10433;DHT22;5263;48.680;9.004;2022-07-23T04:33:58;19.70;99.90
10433;DHT22;5263;48.680;9.004;2022-07-23T04:36:24;19.70;99.90
10433;DHT22;5263;48.680;9.004;2022-07-23T04:38:49;19.80;99.90
10433;DHT22;5263;48.680;9.004;2022-07-23T04:41:15;19.90;99.90
10433;DHT22;5263;48.680;9.004;2022-07-23T04:43:41;19.80;99.90
10433;DHT22;5263;48.680;9.004;2022-07-23T04:46:06;19.90;99.90
10433;DHT22;5263;48.680;9.004;2022-07-23T04:48:32;19.90;99.90
10433;DHT22;5263;48.680;9.004;2022-07-23T04:50:57;20.10;99.90
10433;DHT22;5263;48.680;9.004;2022-07-23T04:53:24;20.20;99.90
10433;DHT22;5263;48.680;9.004;2022-07-23T04:55:49;20.30;99.90
10433;DHT22;5263;48.680;9.004;2022-07-23T04:58:15;20.30;99.90
10433;DHT22;5263;48.680;9.004;2022-07-23T05:00:41;20.40;99.90
10433;DHT22;5263;48.680;9.004;2022-07-23T05:03:06;20.50;99.90
10433;DHT22;5263;48.680;9.004;2022-07-23T05:05:32;20.50;99.90
10433;DHT22;5263;48.680;9.004;2022-07-23T05:07:57;20.40;99.90
10433;DHT22;5263;48.680;9.004;2022-07-23T05:10:23;20.60;99.90
10433;DHT22;5263;48.680;9.004;2022-07-23T05:12:49;20.60;99.90
10433;DHT22;5263;48.680;9.004;2022-07-23T05:15:14;20.80;99.90
10433;DHT22;5263;48.680;9.004;2022-07-23T05:17:40;20.80;99.90
10433;DHT22;5263;48.680;9.004;2022-07-23T05:20:06;20.90;99.90
10433;DHT22;5263;48.680;9.004;2022-07-23T05:22:32;21.10;99.90
10433;DHT22;5263;48.680;9.004;2022-07-23T05:24:58;21.00;99.90
10433;DHT22;5263;48.680;9.004;2022-07-23T05:27:24;21.00;99.90
10433;DHT22;5263;48.680;9.004;2022-07-23T05:29:49;21.10;99.90
10433;DHT22;5263;48.680;9.004;2022-07-23T05:32:15;21.20;99.90
10433;DHT22;5263;48.680;9.004;2022-07-23T05:34:41;21.40;99.90
10433;DHT22;5263;48.680;9.004;2022-07-23T05:37:06;21.40;99.90
10433;DHT22;5263;48.680;9.004;2022-07-23T05:39:32;21.60;99.90
10433;DHT22;5263;48.680;9.004;2022-07-23T05:41:57;21.50;99.90
10433;DHT22;5263;48.680;9.004;2022-07-23T05:44:23;21.40;99.90
10433;DHT22;5263;48.680;9.004;2022-07-23T05:46:49;21.20;99.90
10433;DHT22;5263;48.680;9.004;2022-07-23T05:49:14;21.20;99.90
10433;DHT22;5263;48.680;9.004;2022-07-23T05:51:40;21.00;99.90
10433;DHT22;5263;48.680;9.004;2022-07-23T05:54:06;21.10;99.90
10433;DHT22;5263;48.680;9.004;2022-07-23T05:56:31;21.30;99.90
10433;DHT22;5263;48.680;9.004;2022-07-23T05:58:57;21.40;99.90
10433;DHT22;5263;48.680;9.004;2022-07-23T06:01:22;21.60;99.90
10433;DHT22;5263;48.680;9.004;2022-07-23T06:03:48;21.70;99.90
10433;DHT22;5263;48.680;9.004;2022-07-23T06:06:14;21.80;99.90
10433;DHT22;5263;48.680;9.004;2022-07-23T06:08:39;21.90;99.90
10433;DHT22;5263;48.680;9.004;2022-07-23T06:11:05;22.20;99.90
10433;DHT22;5263;48.680;9.004;2022-07-23T06:13:31;22.30;99.90
10433;DHT22;5263;48.680;9.004;2022-07-23T06:15:56;22.40;99.90
10433;DHT22;5263;48.680;9.004;2022-07-23T06:18:22;22.30;99.90
10433;DHT22;5263;48.680;9.004;2022-07-23T06:20:47;22.50;99.90
10433;DHT22;5263;48.680;9.004;2022-07-23T06:23:13;22.50;99.90
10433;DHT22;5263;48.680;9.004;2022-07-23T06:25:39;22.50;99.90
10433;DHT22;5263;48.680;9.004;2022-07-23T06:28:04;22.60;99.90
10433;DHT22;5263;48.680;9.004;2022-07-23T06:30:30;22.90;99.90
10433;DHT22;5263;48.680;9.004;2022-07-23T06:32:56;23.10;99.90
10433;DHT22;5263;48.680;9.004;2022-07-23T06:35:21;23.20;99.90
10433;DHT22;5263;48.680;9.004;2022-07-23T06:37:47;23.40;99.90
10433;DHT22;5263;48.680;9.004;2022-07-23T06:40:13;23.60;99.90
10433;DHT22;5263;48.680;9.004;2022-07-23T06:42:38;23.70;99.90
10433;DHT22;5263;48.680;9.004;2022-07-23T06:45:05;23.50;99.90
10433;DHT22;5263;48.680;9.004;2022-07-23T06:47:32;23.60;99.90
10433;DHT22;5263;48.680;9.004;2022-07-23T06:49:58;23.60;99.90
10433;DHT22;5263;48.680;9.004;2022-07-23T06:52:24;23.50;99.90
10433;DHT22;5263;48.680;9.004;2022-07-23T06:54:50;23.60;99.90
10433;DHT22;5263;48.680;9.004;2022-07-23T06:57:15;23.50;99.90
10433;DHT22;5263;48.680;9.004;2022-07-23T06:59:41;23.40;99.90
10433;DHT22;5263;48.680;9.004;2022-07-23T07:02:07;23.40;99.90
10433;DHT22;5263;48.680;9.004;2022-07-23T07:04:33;23.30;99.90
10433;DHT22;5263;48.680;9.004;2022-07-23T07:06:59;23.30;99.90
10433;DHT22;5263;48.680;9.004;2022-07-23T07:09:25;23.10;99.90
10433;DHT22;5263;48.680;9.004;2022-07-23T07:11:50;23.10;99.90
10433;DHT22;5263;48.680;9.004;2022-07-23T07:14:16;23.00;99.90
10433;DHT22;5263;48.680;9.004;2022-07-23T07:16:41;23.00;99.90
10433;DHT22;5263;48.680;9.004;2022-07-23T07:19:07;23.20;99.90
10433;DHT22;5263;48.680;9.004;2022-07-23T07:21:33;23.50;99.90
10433;DHT22;5263;48.680;9.004;2022-07-23T07:23:59;23.70;99.90
10433;DHT22;5263;48.680;9.004;2022-07-23T07:26:25;23.90;99.90
10433;DHT22;5263;48.680;9.004;2022-07-23T07:28:51;24.00;99.90
10433;DHT22;5263;48.680;9.004;2022-07-23T07:31:16;24.10;99.90
10433;DHT22;5263;48.680;9.004;2022-07-23T07:33:42;24.20;99.90
10433;DHT22;5263;48.680;9.004;2022-07-23T07:36:08;24.20;99.90
10433;DHT22;5263;48.680;9.004;2022-07-23T07:38:33;24.20;99.90
10433;DHT22;5263;48.680;9.004;2022-07-23T07:40:59;24.20;99.90
10433;DHT22;5263;48.680;9.004;2022-07-23T07:43:25;24.10;99.90
10433;DHT22;5263;48.680;9.004;2022-07-23T07:45:51;24.40;99.90
10433;DHT22;5263;48.680;9.004;2022-07-23T07:48:16;24.50;99.90
10433;DHT22;5263;48.680;9.004;2022-07-23T07:50:42;24.60;99.90
10433;DHT22;5263;48.680;9.004;2022-07-23T07:53:08;24.70;99.90
10433;DHT22;5263;48.680;9.004;2022-07-23T07:55:34;24.80;99.90
10433;DHT22;5263;48.680;9.004;2022-07-23T07:58:00;25.00;99.90
10433;DHT22;5263;48.680;9.004;2022-07-23T08:00:25;24.90;99.90
10433;DHT22;5263;48.680;9.004;2022-07-23T08:02:53;24.60;99.90
10433;DHT22;5263;48.680;9.004;2022-07-23T08:05:20;24.70;99.90
10433;DHT22;5263;48.680;9.004;2022-07-23T08:07:46;24.80;99.90
10433;DHT22;5263;48.680;9.004;2022-07-23T08:10:12;24.90;99.90
10433;DHT22;5263;48.680;9.004;2022-07-23T08:12:43;24.80;99.90
10433;DHT22;5263;48.680;9.004;2022-07-23T08:15:10;24.60;99.90
10433;DHT22;5263;48.680;9.004;2022-07-23T08:17:36;24.20;99.90
10433;DHT22;5263;48.680;9.004;2022-07-23T08:20:03;24.40;99.90
10433;DHT22;5263;48.680;9.004;2022-07-23T08:23:06;24.40;99.90
10433;DHT22;5263;48.680;9.004;2022-07-23T08:25:36;24.90;99.90
10433;DHT22;5263;48.680;9.004;2022-07-23T08:28:05;25.10;99.40
10433;DHT22;5263;48.680;9.004;2022-07-23T08:30:32;25.20;99.20
10433;DHT22;5263;48.680;9.004;2022-07-23T08:33:09;25.30;99.80
10433;DHT22;5263;48.680;9.004;2022-07-23T08:35:39;25.30;99.90
10433;DHT22;5263;48.680;9.004;2022-07-23T08:38:07;25.30;99.90
10433;DHT22;5263;48.680;9.004;2022-07-23T08:40:35;25.40;98.70
10433;DHT22;5263;48.680;9.004;2022-07-23T08:43:05;25.10;99.90
10433;DHT22;5263;48.680;9.004;2022-07-23T08:45:39;25.70;99.90
10433;DHT22;5263;48.680;9.004;2022-07-23T08:48:12;26.20;97.90
10433;DHT22;5263;48.680;9.004;2022-07-23T08:50:46;26.60;97.00
10433;DHT22;5263;48.680;9.004;2022-07-23T08:53:12;27.00;97.00
10433;DHT22;5263;48.680;9.004;2022-07-23T08:55:38;27.10;96.80
10433;DHT22;5263;48.680;9.004;2022-07-23T08:58:04;26.80;96.60
10433;DHT22;5263;48.680;9.004;2022-07-23T09:00:30;26.80;96.00
10433;DHT22;5263;48.680;9.004;2022-07-23T09:02:55;26.70;95.00
10433;DHT22;5263;48.680;9.004;2022-07-23T09:05:21;26.30;94.70
10433;DHT22;5263;48.680;9.004;2022-07-23T09:08:07;26.50;95.20
10433;DHT22;5263;48.680;9.004;2022-07-23T09:15:54;27.00;94.20
10433;DHT22;5263;48.680;9.004;2022-07-23T09:18:27;26.80;94.90
10433;DHT22;5263;48.680;9.004;2022-07-23T09:21:12;27.10;93.20
10433;DHT22;5263;48.680;9.004;2022-07-23T09:26:32;27.50;94.20
10433;DHT22;5263;48.680;9.004;2022-07-23T09:29:18;27.60;92.40
10433;DHT22;5263;48.680;9.004;2022-07-23T09:31:58;27.70;91.70
10433;DHT22;5263;48.680;9.004;2022-07-23T09:34:32;27.40;92.40
10433;DHT22;5263;48.680;9.004;2022-07-23T09:37:18;27.30;91.70
10433;DHT22;5263;48.680;9.004;2022-07-23T09:39:45;27.30;92.80
10433;DHT22;5263;48.680;9.004;2022-07-23T09:42:25;27.40;94.00
10433;DHT22;5263;48.680;9.004;2022-07-23T09:44:56;27.50;92.10
10433;DHT22;5263;48.680;9.004;2022-07-23T09:47:23;27.30;92.40
10433;DHT22;5263;48.680;9.004;2022-07-23T09:52:28;27.30;93.50
10433;DHT22;5263;48.680;9.004;2022-07-23T09:55:05;27.00;93.60
10433;DHT22;5263;48.680;9.004;2022-07-23T09:57:32;27.30;93.10
10433;DHT22;5263;48.680;9.004;2022-07-23T10:00:02;27.40;92.50
10433;DHT22;5263;48.680;9.004;2022-07-23T10:02:32;27.70;93.10
10433;DHT22;5263;48.680;9.004;2022-07-23T10:04:58;27.90;91.10
10433;DHT22;5263;48.680;9.004;2022-07-23T10:07:26;28.30;90.90
10433;DHT22;5263;48.680;9.004;2022-07-23T10:09:52;28.80;90.50
10433;DHT22;5263;48.680;9.004;2022-07-23T10:12:19;29.10;91.20
10433;DHT22;5263;48.680;9.004;2022-07-23T10:14:44;29.20;86.40
10433;DHT22;5263;48.680;9.004;2022-07-23T10:17:11;29.30;85.60
10433;DHT22;5263;48.680;9.004;2022-07-23T10:19:37;29.40;83.90
10433;DHT22;5263;48.680;9.004;2022-07-23T10:22:14;29.10;82.40
10433;DHT22;5263;48.680;9.004;2022-07-23T10:24:53;29.40;85.50
10433;DHT22;5263;48.680;9.004;2022-07-23T10:30:20;29.90;79.40
10433;DHT22;5263;48.680;9.004;2022-07-23T10:38:31;33.30;68.60
10433;DHT22;5263;48.680;9.004;2022-07-23T10:41:02;34.20;61.30
10433;DHT22;5263;48.680;9.004;2022-07-23T10:43:29;34.30;58.00
10433;DHT22;5263;48.680;9.004;2022-07-23T10:45:56;35.70;56.10
10433;DHT22;5263;48.680;9.004;2022-07-23T10:48:23;36.80;54.20
10433;DHT22;5263;48.680;9.004;2022-07-23T10:57:04;38.40;44.50
10433;DHT22;5263;48.680;9.004;2022-07-23T10:59:05;39.00;43.70
10433;DHT22;5263;48.680;9.004;2022-07-23T11:01:36;39.30;42.20
10433;DHT22;5263;48.680;9.004;2022-07-23T11:04:03;39.90;41.80
10433;DHT22;5263;48.680;9.004;2022-07-23T11:09:40;39.80;41.60
10433;DHT22;5263;48.680;9.004;2022-07-23T11:15:14;40.40;39.40
10433;DHT22;5263;48.680;9.004;2022-07-23T11:25:11;40.00;37.00
10433;DHT22;5263;48.680;9.004;2022-07-23T11:27:46;39.60;37.70
10433;DHT22;5263;48.680;9.004;2022-07-23T11:35:42;36.80;42.70
10433;DHT22;5263;48.680;9.004;2022-07-23T11:40:39;36.30;44.40
10433;DHT22;5263;48.680;9.004;2022-07-23T11:43:07;35.60;44.00
10433;DHT22;5263;48.680;9.004;2022-07-23T11:45:36;35.90;42.40
10433;DHT22;5263;48.680;9.004;2022-07-23T11:48:03;35.80;43.30
10433;DHT22;5263;48.680;9.004;2022-07-23T11:50:29;38.20;41.60
10433;DHT22;5263;48.680;9.004;2022-07-23T11:52:54;39.60;38.40
10433;DHT22;5263;48.680;9.004;2022-07-23T11:55:20;39.70;38.60
10433;DHT22;5263;48.680;9.004;2022-07-23T11:57:46;40.10;38.80
10433;DHT22;5263;48.680;9.004;2022-07-23T12:00:16;39.10;38.60
10433;DHT22;5263;48.680;9.004;2022-07-23T12:02:45;38.00;40.10
10433;DHT22;5263;48.680;9.004;2022-07-23T12:05:39;37.50;41.60
10433;DHT22;5263;48.680;9.004;2022-07-23T12:08:05;38.00;43.20
10433;DHT22;5263;48.680;9.004;2022-07-23T12:10:37;39.40;38.90
10433;DHT22;5263;48.680;9.004;2022-07-23T12:13:13;39.60;37.20
10433;DHT22;5263;48.680;9.004;2022-07-23T12:18:11;39.60;38.60
10433;DHT22;5263;48.680;9.004;2022-07-23T12:20:43;39.10;37.40
10433;DHT22;5263;48.680;9.004;2022-07-23T12:23:10;39.10;38.10
10433;DHT22;5263;48.680;9.004;2022-07-23T12:25:39;38.80;38.80
10433;DHT22;5263;48.680;9.004;2022-07-23T12:30:48;36.00;43.20
10433;DHT22;5263;48.680;9.004;2022-07-23T12:33:37;36.00;43.10
10433;DHT22;5263;48.680;9.004;2022-07-23T12:36:04;35.20;43.60
10433;DHT22;5263;48.680;9.004;2022-07-23T12:38:40;38.00;41.20
10433;DHT22;5263;48.680;9.004;2022-07-23T12:41:07;39.20;39.70
10433;DHT22;5263;48.680;9.004;2022-07-23T12:43:38;36.50;42.20
10433;DHT22;5263;48.680;9.004;2022-07-23T12:46:07;34.60;46.10
10433;DHT22;5263;48.680;9.004;2022-07-23T12:48:35;33.90;48.00
10433;DHT22;5263;48.680;9.004;2022-07-23T12:51:12;33.60;47.60
10433;DHT22;5263;48.680;9.004;2022-07-23T12:53:45;32.90;50.00
10433;DHT22;5263;48.680;9.004;2022-07-23T12:56:20;33.50;49.70
10433;DHT22;5263;48.680;9.004;2022-07-23T13:01:35;32.30;51.00
10433;DHT22;5263;48.680;9.004;2022-07-23T13:06:33;35.90;46.40
10433;DHT22;5263;48.680;9.004;2022-07-23T13:09:00;37.30;45.80
10433;DHT22;5263;48.680;9.004;2022-07-23T13:11:26;38.50;41.00
10433;DHT22;5263;48.680;9.004;2022-07-23T13:13:52;40.10;39.40
10433;DHT22;5263;48.680;9.004;2022-07-23T13:16:18;41.10;37.20
10433;DHT22;5263;48.680;9.004;2022-07-23T13:18:43;42.00;36.50
10433;DHT22;5263;48.680;9.004;2022-07-23T13:21:09;40.90;36.20
10433;DHT22;5263;48.680;9.004;2022-07-23T13:23:35;40.90;36.20
10433;DHT22;5263;48.680;9.004;2022-07-23T13:26:01;40.30;37.00
10433;DHT22;5263;48.680;9.004;2022-07-23T13:28:27;39.40;36.90
10433;DHT22;5263;48.680;9.004;2022-07-23T13:30:52;38.00;39.20
10433;DHT22;5263;48.680;9.004;2022-07-23T13:33:23;37.00;40.90
10433;DHT22;5263;48.680;9.004;2022-07-23T13:35:50;35.60;43.70
10433;DHT22;5263;48.680;9.004;2022-07-23T13:38:17;34.50;45.00
10433;DHT22;5263;48.680;9.004;2022-07-23T13:40:44;33.70;46.20
10433;DHT22;5263;48.680;9.004;2022-07-23T13:43:12;32.50;48.20
10433;DHT22;5263;48.680;9.004;2022-07-23T13:45:39;32.00;50.50
10433;DHT22;5263;48.680;9.004;2022-07-23T13:48:08;31.90;52.00
10433;DHT22;5263;48.680;9.004;2022-07-23T13:50:35;31.90;51.20
10433;DHT22;5263;48.680;9.004;2022-07-23T13:53:06;31.70;53.10
10433;DHT22;5263;48.680;9.004;2022-07-23T13:55:33;31.20;52.10
10433;DHT22;5263;48.680;9.004;2022-07-23T13:57:59;30.70;53.30
10433;DHT22;5263;48.680;9.004;2022-07-23T14:00:26;30.20;54.30
10433;DHT22;5263;48.680;9.004;2022-07-23T14:02:52;30.00;55.00
10433;DHT22;5263;48.680;9.004;2022-07-23T14:05:17;30.00;56.70
10433;DHT22;5263;48.680;9.004;2022-07-23T14:07:43;29.70;57.40
10433;DHT22;5263;48.680;9.004;2022-07-23T14:10:10;29.90;57.60
10433;DHT22;5263;48.680;9.004;2022-07-23T14:12:36;29.80;57.00
10433;DHT22;5263;48.680;9.004;2022-07-23T14:15:05;29.40;58.30
10433;DHT22;5263;48.680;9.004;2022-07-23T14:17:31;29.60;58.60
10433;DHT22;5263;48.680;9.004;2022-07-23T14:19:58;29.90;58.80
10433;DHT22;5263;48.680;9.004;2022-07-23T14:22:24;30.00;58.30
10433;DHT22;5263;48.680;9.004;2022-07-23T14:24:49;30.20;57.70
10433;DHT22;5263;48.680;9.004;2022-07-23T14:27:15;30.30;57.40
10433;DHT22;5263;48.680;9.004;2022-07-23T14:29:41;29.10;57.30
10433;DHT22;5263;48.680;9.004;2022-07-23T14:32:07;29.00;58.70
10433;DHT22;5263;48.680;9.004;2022-07-23T14:34:32;28.90;59.40
10433;DHT22;5263;48.680;9.004;2022-07-23T14:36:59;29.20;60.60
10433;DHT22;5263;48.680;9.004;2022-07-23T14:39:25;29.20;59.70
10433;DHT22;5263;48.680;9.004;2022-07-23T14:41:50;29.40;60.80
10433;DHT22;5263;48.680;9.004;2022-07-23T14:44:16;28.90;59.70
10433;DHT22;5263;48.680;9.004;2022-07-23T14:46:42;29.00;61.50
10433;DHT22;5263;48.680;9.004;2022-07-23T14:49:07;29.10;57.30
10433;DHT22;5263;48.680;9.004;2022-07-23T14:51:33;28.50;61.00
10433;DHT22;5263;48.680;9.004;2022-07-23T14:53:58;28.60;57.70
10433;DHT22;5263;48.680;9.004;2022-07-23T14:56:24;28.70;56.40
10433;DHT22;5263;48.680;9.004;2022-07-23T14:58:50;28.70;56.50
10433;DHT22;5263;48.680;9.004;2022-07-23T15:01:15;28.70;56.00
10433;DHT22;5263;48.680;9.004;2022-07-23T15:03:41;28.90;57.10
10433;DHT22;5263;48.680;9.004;2022-07-23T15:06:07;29.10;57.60
10433;DHT22;5263;48.680;9.004;2022-07-23T15:08:33;29.70;55.60
10433;DHT22;5263;48.680;9.004;2022-07-23T15:10:58;29.80;56.60
10433;DHT22;5263;48.680;9.004;2022-07-23T15:13:24;30.20;55.60
10433;DHT22;5263;48.680;9.004;2022-07-23T15:15:50;29.90;55.60
10433;DHT22;5263;48.680;9.004;2022-07-23T15:18:15;29.50;55.00
10433;DHT22;5263;48.680;9.004;2022-07-23T15:20:41;29.50;54.50
10433;DHT22;5263;48.680;9.004;2022-07-23T15:23:07;29.50;54.50
10433;DHT22;5263;48.680;9.004;2022-07-23T15:25:33;29.50;56.50
10433;DHT22;5263;48.680;9.004;2022-07-23T15:27:59;29.50;58.30
10433;DHT22;5263;48.680;9.004;2022-07-23T15:30:26;29.40;55.90
10433;DHT22;5263;48.680;9.004;2022-07-23T15:32:51;29.20;56.30
10433;DHT22;5263;48.680;9.004;2022-07-23T15:35:17;29.20;57.30
10433;DHT22;5263;48.680;9.004;2022-07-23T15:37:43;29.20;56.20
10433;DHT22;5263;48.680;9.004;2022-07-23T15:40:09;29.10;57.40
10433;DHT22;5263;48.680;9.004;2022-07-23T15:42:35;28.90;56.80
10433;DHT22;5263;48.680;9.004;2022-07-23T15:45:01;28.70;57.80
10433;DHT22;5263;48.680;9.004;2022-07-23T15:47:27;28.50;59.20
10433;DHT22;5263;48.680;9.004;2022-07-23T15:49:53;28.40;59.60
10433;DHT22;5263;48.680;9.004;2022-07-23T15:52:18;28.70;61.60
10433;DHT22;5263;48.680;9.004;2022-07-23T15:54:44;28.90;59.70
10433;DHT22;5263;48.680;9.004;2022-07-23T15:57:10;29.10;60.00
10433;DHT22;5263;48.680;9.004;2022-07-23T15:59:36;29.40;58.80
10433;DHT22;5263;48.680;9.004;2022-07-23T16:02:03;29.20;58.80
10433;DHT22;5263;48.680;9.004;2022-07-23T16:04:28;29.20;58.40
10433;DHT22;5263;48.680;9.004;2022-07-23T16:06:55;29.10;59.70
10433;DHT22;5263;48.680;9.004;2022-07-23T16:09:20;29.10;57.40
10433;DHT22;5263;48.680;9.004;2022-07-23T16:11:46;29.00;57.80
10433;DHT22;5263;48.680;9.004;2022-07-23T16:14:12;28.50;58.20
10433;DHT22;5263;48.680;9.004;2022-07-23T16:16:37;28.30;59.50
10433;DHT22;5263;48.680;9.004;2022-07-23T16:19:03;28.20;60.90
10433;DHT22;5263;48.680;9.004;2022-07-23T16:21:29;28.30;61.40
10433;DHT22;5263;48.680;9.004;2022-07-23T16:23:54;28.50;61.00
10433;DHT22;5263;48.680;9.004;2022-07-23T16:26:20;28.30;62.20
10433;DHT22;5263;48.680;9.004;2022-07-23T16:28:46;28.50;62.30
10433;DHT22;5263;48.680;9.004;2022-07-23T16:31:12;28.30;60.70
10433;DHT22;5263;48.680;9.004;2022-07-23T16:33:38;28.40;61.80
10433;DHT22;5263;48.680;9.004;2022-07-23T16:36:06;28.20;60.10
10433;DHT22;5263;48.680;9.004;2022-07-23T16:38:36;28.10;60.20
10433;DHT22;5263;48.680;9.004;2022-07-23T16:41:02;28.10;60.90